Time;durP1;ratioP1;P1;durP2;ratioP2;P2;SDS_P1;SDS_P2;PMS_P1;PMS_P2;Temp;Humidity;BMP_temperature;BMP_pressure;BME280_temperature;BME280_humidity;BME280_pressure;Samples;Min_cycle;Max_cycle;Signal;HPM_P1;HPM_P2
2023/02/14 00:00:49;;;;;;;5.97;3.75;;;;;;;;;;5141031;27;20027;-69
2023/02/14 00:03:15;;;;;;;5.53;4.30;;;;;;;;;;5132969;27;20023;-69
2023/02/14 00:05:41;;;;;;;6.57;4.15;;;;;;;;;;5136965;27;20034;-69
2023/02/14 00:08:07;;;;;;;6.68;4.28;;;;;;;;;;5137264;27;20550;-69
2023/02/14 00:10:33;;;;;;;6.18;4.13;;;;;;;;;;5140337;27;20373;-70
2023/02/14 00:13:00;;;;;;;5.00;3.33;;;;;;;;;;5124588;28;20023;-70
2023/02/14 00:15:26;;;;;;;5.88;4.00;;;;;;;;;;5147821;27;20053;-69
2023/02/14 00:17:53;;;;;;;9.05;4.68;;;;;;;;;;5140467;27;20030;-69
2023/02/14 00:20:20;;;;;;;4.55;4.05;;;;;;;;;;5144374;27;20058;-70
2023/02/14 00:22:46;;;;;;;11.13;4.70;;;;;;;;;;5139216;27;20027;-69
2023/02/14 00:25:12;;;;;;;7.53;4.45;;;;;;;;;;5142387;27;20041;-69
2023/02/14 00:27:38;;;;;;;6.68;4.15;;;;;;;;;;5140777;27;20474;-69
2023/02/14 00:30:05;;;;;;;5.15;4.22;;;;;;;;;;5137469;27;20046;-69
2023/02/14 00:32:32;;;;;;;6.60;4.30;;;;;;;;;;5146081;27;20381;-69
2023/02/14 00:34:58;;;;;;;5.82;4.00;;;;;;;;;;5146260;27;20015;-70
2023/02/14 00:37:24;;;;;;;5.60;4.00;;;;;;;;;;5140818;27;20023;-69
2023/02/14 00:39:50;;;;;;;9.00;4.53;;;;;;;;;;5142311;27;20465;-69
2023/02/14 00:42:17;;;;;;;6.57;3.92;;;;;;;;;;5141578;27;20019;-69
2023/02/14 00:44:43;;;;;;;6.85;4.25;;;;;;;;;;5136526;27;20084;-69
2023/02/14 00:47:09;;;;;;;5.57;4.03;;;;;;;;;;5141759;27;20075;-69
2023/02/14 00:49:35;;;;;;;6.72;4.13;;;;;;;;;;5141208;27;20037;-69
2023/02/14 00:52:01;;;;;;;7.00;4.43;;;;;;;;;;5135981;27;20019;-70
2023/02/14 00:54:27;;;;;;;4.72;3.63;;;;;;;;;;5141857;27;20027;-69
2023/02/14 00:56:53;;;;;;;5.93;4.07;;;;;;;;;;5139117;27;20018;-69
2023/02/14 00:59:20;;;;;;;5.30;4.18;;;;;;;;;;5136062;27;20039;-70
2023/02/14 01:01:46;;;;;;;5.43;4.20;;;;;;;;;;5140655;27;20026;-69
2023/02/14 01:04:12;;;;;;;6.05;4.10;;;;;;;;;;5127048;27;20736;-69
2023/02/14 01:06:38;;;;;;;6.88;4.40;;;;;;;;;;5145402;27;20427;-69
2023/02/14 01:09:04;;;;;;;6.13;4.00;;;;;;;;;;5135873;27;20019;-70
2023/02/14 01:11:31;;;;;;;5.25;4.07;;;;;;;;;;5137571;27;20023;-69
2023/02/14 01:13:57;;;;;;;6.55;4.32;;;;;;;;;;5140150;27;20103;-70
2023/02/14 01:16:25;;;;;;;7.35;4.18;;;;;;;;;;5137680;27;20015;-69
2023/02/14 01:18:51;;;;;;;7.38;4.38;;;;;;;;;;5118579;27;20022;-69
2023/02/14 01:21:20;;;;;;;7.05;4.30;;;;;;;;;;5135963;27;20075;-69
2023/02/14 01:23:48;;;;;;;6.07;4.90;;;;;;;;;;5133180;27;20015;-69
2023/02/14 01:26:15;;;;;;;6.82;4.20;;;;;;;;;;5139109;27;20126;-70
2023/02/14 01:28:41;;;;;;;5.05;3.67;;;;;;;;;;5142422;27;20026;-70
2023/02/14 01:31:08;;;;;;;5.93;3.95;;;;;;;;;;5134217;27;20405;-69
2023/02/14 01:33:35;;;;;;;6.45;3.90;;;;;;;;;;5120644;27;20466;-69
2023/02/14 01:36:01;;;;;;;6.53;4.38;;;;;;;;;;5140692;27;20436;-70
2023/02/14 01:38:27;;;;;;;6.70;4.60;;;;;;;;;;5140740;27;20106;-69
2023/02/14 01:40:53;;;;;;;6.18;4.40;;;;;;;;;;5142680;27;20034;-69
2023/02/14 01:43:19;;;;;;;6.63;4.20;;;;;;;;;;5137094;27;20015;-70
2023/02/14 01:45:45;;;;;;;6.63;4.47;;;;;;;;;;5117670;27;20023;-69
2023/02/14 01:48:12;;;;;;;7.07;4.88;;;;;;;;;;5134956;27;20060;-69
2023/02/14 01:50:41;;;;;;;5.93;4.50;;;;;;;;;;5134159;27;20027;-69
2023/02/14 01:53:10;;;;;;;8.48;4.50;;;;;;;;;;5121149;27;20445;-69
2023/02/14 01:55:38;;;;;;;6.55;4.32;;;;;;;;;;5135647;27;20023;-69
2023/02/14 01:58:13;;;;;;;5.72;4.40;;;;;;;;;;5138037;27;20023;-69
2023/02/14 02:01:00;;;;;;;6.43;4.10;;;;;;;;;;5145215;27;20206;-70
2023/02/14 02:03:33;;;;;;;6.13;3.88;;;;;;;;;;5136880;27;20035;-69
2023/02/14 02:06:09;;;;;;;6.55;4.40;;;;;;;;;;5132167;27;20034;-69
2023/02/14 02:08:36;;;;;;;8.00;4.40;;;;;;;;;;5136872;27;20631;-69
2023/02/14 02:11:03;;;;;;;5.65;4.32;;;;;;;;;;5132912;27;20091;-69
2023/02/14 02:13:29;;;;;;;5.70;4.07;;;;;;;;;;5118787;27;20055;-69
2023/02/14 02:16:05;;;;;;;5.10;3.78;;;;;;;;;;5123103;27;20023;-69
2023/02/14 02:18:37;;;;;;;6.97;4.00;;;;;;;;;;5136290;27;20018;-69
2023/02/14 02:21:22;;;;;;;6.20;4.65;;;;;;;;;;5093404;27;1327411;-70
2023/02/14 02:24:11;;;;;;;5.78;4.30;;;;;;;;;;5134488;27;20080;-69
2023/02/14 02:27:03;;;;;;;6.25;4.40;;;;;;;;;;5107221;27;20130;-70
2023/02/14 02:29:29;;;;;;;5.93;4.45;;;;;;;;;;5135701;27;20025;-69
2023/02/14 02:32:14;;;;;;;7.88;4.50;;;;;;;;;;5134433;27;20065;-69
2023/02/14 02:34:54;;;;;;;7.07;4.78;;;;;;;;;;5147800;27;20033;-69
2023/02/14 02:37:26;;;;;;;5.43;4.93;;;;;;;;;;5130020;27;20374;-69
2023/02/14 02:39:52;;;;;;;6.95;4.13;;;;;;;;;;5137340;27;20086;-70
2023/02/14 02:42:37;;;;;;;6.65;4.15;;;;;;;;;;5129206;27;20023;-70
2023/02/14 02:45:22;;;;;;;9.65;4.43;;;;;;;;;;5134299;27;20037;-69
2023/02/14 02:47:57;;;;;;;6.40;4.03;;;;;;;;;;5131654;27;20023;-69
2023/02/14 02:53:38;;;;;;;5.20;4.03;;;;;;;;;;5129150;27;20031;-69
2023/02/14 02:58:59;;;;;;;6.07;4.43;;;;;;;;;;5131863;27;20103;-69
2023/02/14 03:01:30;;;;;;;4.93;3.67;;;;;;;;;;5135605;27;20087;-69
2023/02/14 03:06:44;;;;;;;7.50;4.30;;;;;;;;;;5131880;27;20074;-69
2023/02/14 03:09:30;;;;;;;6.22;4.43;;;;;;;;;;5133978;27;20033;-70
2023/02/14 03:12:11;;;;;;;5.90;4.25;;;;;;;;;;5122100;27;20203;-69
2023/02/14 03:14:55;;;;;;;5.55;3.85;;;;;;;;;;5132152;27;20027;-69
2023/02/14 03:17:22;;;;;;;5.70;3.83;;;;;;;;;;5135619;27;20019;-69
2023/02/14 03:20:14;;;;;;;8.60;4.85;;;;;;;;;;5134740;27;20039;-70
2023/02/14 03:22:40;;;;;;;;;;;;;;;;;;5129481;27;20110;-69
2023/02/14 03:25:15;;;;;;;6.72;4.15;;;;;;;;;;5140893;27;20002;-70
2023/02/14 03:27:45;;;;;;;6.72;4.65;;;;;;;;;;5113201;27;20436;-70
2023/02/14 03:30:24;;;;;;;6.20;4.18;;;;;;;;;;5135499;27;20023;-70
2023/02/14 03:32:59;;;;;;;5.43;4.20;;;;;;;;;;5137779;27;20022;-70
2023/02/14 03:35:29;;;;;;;5.70;4.45;;;;;;;;;;5140343;27;20030;-70
2023/02/14 03:38:12;;;;;;;7.05;4.32;;;;;;;;;;5139040;27;20018;-70
2023/02/14 03:40:41;;;;;;;8.43;4.45;;;;;;;;;;5131882;27;20055;-70
2023/02/14 03:43:13;;;;;;;5.28;4.20;;;;;;;;;;5133111;27;20056;-71
2023/02/14 03:45:39;;;;;;;;;;;;;;;;;;5132386;27;20518;-70
2023/02/14 03:48:08;;;;;;;9.00;4.13;;;;;;;;;;5135552;27;19911;-70
2023/02/14 03:50:35;;;;;;;5.65;4.25;;;;;;;;;;5137398;27;20050;-70
2023/02/14 03:53:02;;;;;;;6.35;4.25;;;;;;;;;;5135943;27;20099;-70
2023/02/14 03:55:47;;;;;;;5.72;4.30;;;;;;;;;;5136565;27;20015;-70
2023/02/14 03:58:18;;;;;;;7.90;4.57;;;;;;;;;;5140159;27;20023;-70
2023/02/14 04:00:46;;;;;;;5.65;4.05;;;;;;;;;;5141442;27;20034;-74
2023/02/14 04:03:14;;;;;;;6.60;3.83;;;;;;;;;;5142277;27;20439;-70
2023/02/14 04:05:42;;;;;;;6.53;4.57;;;;;;;;;;5138666;27;20419;-70
2023/02/14 04:08:09;;;;;;;7.57;4.85;;;;;;;;;;5134729;27;20485;-70
2023/02/14 04:10:35;;;;;;;5.65;4.18;;;;;;;;;;5128925;27;20038;-70
2023/02/14 04:13:02;;;;;;;5.25;4.00;;;;;;;;;;5117700;27;20068;-70
2023/02/14 04:15:28;;;;;;;5.55;4.00;;;;;;;;;;5133591;27;20023;-70
2023/02/14 04:20:39;;;;;;;6.20;4.43;;;;;;;;;;5122703;27;20046;-70
2023/02/14 04:23:05;;;;;;;5.20;4.05;;;;;;;;;;5139734;27;20031;-70
2023/02/14 04:25:31;;;;;;;6.63;4.65;;;;;;;;;;5130554;27;20080;-70
2023/02/14 04:27:57;;;;;;;4.78;4.10;;;;;;;;;;5129100;27;20070;-70
2023/02/14 04:30:23;;;;;;;9.00;4.65;;;;;;;;;;5131436;27;20053;-70
2023/02/14 04:32:50;;;;;;;6.78;4.88;;;;;;;;;;5127944;27;20732;-70
2023/02/14 04:35:16;;;;;;;7.05;4.82;;;;;;;;;;5132147;27;20027;-70
2023/02/14 04:37:42;;;;;;;8.18;4.57;;;;;;;;;;5111108;28;20568;-70
2023/02/14 04:40:09;;;;;;;5.93;4.00;;;;;;;;;;5138963;27;20031;-70
2023/02/14 04:42:35;;;;;;;7.88;5.03;;;;;;;;;;5128892;27;20379;-70
2023/02/14 04:45:01;;;;;;;4.93;4.03;;;;;;;;;;5128508;27;20426;-70
2023/02/14 04:47:27;;;;;;;8.98;4.28;;;;;;;;;;5116538;27;20034;-70
2023/02/14 04:49:53;;;;;;;8.77;5.15;;;;;;;;;;5111487;27;20020;-69
2023/02/14 04:52:19;;;;;;;8.57;4.88;;;;;;;;;;5128846;27;20046;-70
2023/02/14 04:54:47;;;;;;;8.65;4.82;;;;;;;;;;5130404;27;20086;-70
2023/02/14 04:57:13;;;;;;;8.52;4.68;;;;;;;;;;5133222;27;20114;-70
2023/02/14 04:59:39;;;;;;;6.10;4.38;;;;;;;;;;5130327;27;20096;-70
2023/02/14 05:02:06;;;;;;;6.50;4.30;;;;;;;;;;5130891;27;20031;-70
2023/02/14 05:04:32;;;;;;;6.43;4.57;;;;;;;;;;5133758;27;20395;-71
2023/02/14 05:06:58;;;;;;;6.30;4.43;;;;;;;;;;5127859;27;20545;-70
2023/02/14 05:09:24;;;;;;;7.32;4.40;;;;;;;;;;5133419;27;20069;-71
2023/02/14 05:11:51;;;;;;;6.53;4.57;;;;;;;;;;5133653;27;20474;-70
2023/02/14 05:14:17;;;;;;;5.57;4.60;;;;;;;;;;5133212;27;20041;-70
2023/02/14 05:16:43;;;;;;;6.22;4.13;;;;;;;;;;5134177;27;20087;-70
2023/02/14 05:19:09;;;;;;;6.50;4.13;;;;;;;;;;5142073;27;20077;-70
2023/02/14 05:21:35;;;;;;;8.43;4.72;;;;;;;;;;5134582;27;20051;-70
2023/02/14 05:24:02;;;;;;;5.85;4.40;;;;;;;;;;5132225;27;20035;-70
2023/02/14 05:26:28;;;;;;;6.65;4.78;;;;;;;;;;5133276;27;20040;-70
2023/02/14 05:28:54;;;;;;;6.40;4.28;;;;;;;;;;5126139;27;20568;-70
2023/02/14 05:31:20;;;;;;;6.43;4.90;;;;;;;;;;5134993;27;20387;-70
2023/02/14 05:33:46;;;;;;;7.85;4.50;;;;;;;;;;5133533;27;20061;-70
2023/02/14 05:36:12;;;;;;;4.97;3.83;;;;;;;;;;5139844;27;20752;-70
2023/02/14 05:38:39;;;;;;;8.88;4.45;;;;;;;;;;5140373;27;20034;-71
2023/02/14 05:41:05;;;;;;;8.52;4.90;;;;;;;;;;5123333;27;20383;-70
2023/02/14 05:43:31;;;;;;;6.07;4.68;;;;;;;;;;5134060;27;20183;-70
2023/02/14 05:45:58;;;;;;;8.32;4.57;;;;;;;;;;5133489;27;20043;-70
2023/02/14 05:48:24;;;;;;;5.30;4.22;;;;;;;;;;5132705;27;20022;-70
2023/02/14 05:50:50;;;;;;;8.65;4.38;;;;;;;;;;5131752;27;20566;-70
2023/02/14 05:53:16;;;;;;;9.85;5.72;;;;;;;;;;5114124;27;20414;-70
2023/02/14 05:55:43;;;;;;;9.40;4.75;;;;;;;;;;5143382;27;20022;-70
2023/02/14 05:58:09;;;;;;;9.50;4.85;;;;;;;;;;5138808;27;20665;-71
2023/02/14 06:00:36;;;;;;;7.20;4.53;;;;;;;;;;5132653;27;20034;-70
2023/02/14 06:03:02;;;;;;;7.20;4.57;;;;;;;;;;5131241;27;20027;-70
2023/02/14 06:05:28;;;;;;;8.60;4.40;;;;;;;;;;5136370;27;20026;-70
2023/02/14 06:07:54;;;;;;;6.35;4.57;;;;;;;;;;5127554;27;20027;-71
2023/02/14 06:10:21;;;;;;;10.60;4.88;;;;;;;;;;5132998;27;20479;-70
2023/02/14 06:12:48;;;;;;;7.75;4.88;;;;;;;;;;5135424;27;20654;-70
2023/02/14 06:15:15;;;;;;;6.15;4.60;;;;;;;;;;5139825;27;20071;-70
2023/02/14 06:17:41;;;;;;;7.88;5.05;;;;;;;;;;5135061;27;20031;-70
2023/02/14 06:20:10;;;;;;;7.57;5.13;;;;;;;;;;5133280;27;20122;-71
2023/02/14 06:22:37;;;;;;;5.82;4.70;;;;;;;;;;5135559;27;20101;-70
2023/02/14 06:25:04;;;;;;;8.77;5.28;;;;;;;;;;5116295;27;20383;-70
2023/02/14 06:27:31;;;;;;;7.93;5.40;;;;;;;;;;5133201;27;20067;-70
2023/02/14 06:29:57;;;;;;;7.47;5.75;;;;;;;;;;5133199;27;20031;-70
2023/02/14 06:32:23;;;;;;;12.05;6.20;;;;;;;;;;5140427;27;20504;-74
2023/02/14 06:34:49;;;;;;;7.13;5.03;;;;;;;;;;5134229;27;20019;-71
2023/02/14 06:37:16;;;;;;;9.43;5.13;;;;;;;;;;5129909;27;20027;-71
2023/02/14 06:39:42;;;;;;;9.95;5.10;;;;;;;;;;5134504;27;20043;-70
2023/02/14 06:42:08;;;;;;;7.32;4.70;;;;;;;;;;5128888;27;20034;-74
2023/02/14 06:44:34;;;;;;;7.25;5.03;;;;;;;;;;5131579;27;20082;-70
2023/02/14 06:47:00;;;;;;;6.25;4.57;;;;;;;;;;5128195;27;20030;-70
2023/02/14 06:49:26;;;;;;;6.93;5.43;;;;;;;;;;5131469;27;20349;-72
2023/02/14 06:51:52;;;;;;;10.90;4.80;;;;;;;;;;5132105;27;20465;-73
2023/02/14 06:54:19;;;;;;;8.15;5.15;;;;;;;;;;5137273;27;20494;-70
2023/02/14 06:56:45;;;;;;;7.65;4.50;;;;;;;;;;5125636;27;20028;-71
2023/02/14 06:59:11;;;;;;;5.00;4.25;;;;;;;;;;5129219;27;20248;-72
2023/02/14 07:01:37;;;;;;;6.70;4.97;;;;;;;;;;5133256;27;20031;-70
2023/02/14 07:04:03;;;;;;;8.20;5.53;;;;;;;;;;5127876;27;20027;-73
2023/02/14 07:06:29;;;;;;;7.90;4.80;;;;;;;;;;5126066;27;20019;-72
2023/02/14 07:08:56;;;;;;;6.50;5.00;;;;;;;;;;5132632;27;20083;-71
2023/02/14 07:11:22;;;;;;;7.95;6.28;;;;;;;;;;5129939;27;20023;-71
2023/02/14 07:13:48;;;;;;;8.90;6.30;;;;;;;;;;5130323;27;20082;-74
2023/02/14 07:16:14;;;;;;;10.98;6.15;;;;;;;;;;5130390;27;20028;-71
2023/02/14 07:18:40;;;;;;;8.52;6.28;;;;;;;;;;5127679;27;20037;-71
2023/02/14 07:21:06;;;;;;;8.13;6.10;;;;;;;;;;5123391;27;20068;-70
2023/02/14 07:23:33;;;;;;;9.23;6.90;;;;;;;;;;5133564;27;20494;-74
2023/02/14 07:25:59;;;;;;;10.38;6.80;;;;;;;;;;5132781;27;20019;-70
2023/02/14 07:28:25;;;;;;;6.28;4.88;;;;;;;;;;5129446;27;20023;-70
2023/02/14 07:30:51;;;;;;;8.82;5.20;;;;;;;;;;5130578;27;20015;-72
2023/02/14 07:33:17;;;;;;;6.65;5.25;;;;;;;;;;5128265;27;20030;-71
2023/02/14 07:35:44;;;;;;;10.27;6.55;;;;;;;;;;5127953;27;20019;-70
2023/02/14 07:38:10;;;;;;;7.50;5.72;;;;;;;;;;5130423;27;20027;-70
2023/02/14 07:40:36;;;;;;;8.13;4.80;;;;;;;;;;5126554;27;20031;-70
2023/02/14 07:43:02;;;;;;;8.52;5.15;;;;;;;;;;5127224;27;20033;-70
2023/02/14 07:45:28;;;;;;;6.95;4.50;;;;;;;;;;5126077;27;20027;-70
2023/02/14 07:47:55;;;;;;;6.65;4.13;;;;;;;;;;5130800;27;20048;-70
2023/02/14 07:50:22;;;;;;;6.85;4.55;;;;;;;;;;5126863;27;20019;-70
2023/02/14 07:52:48;;;;;;;7.10;4.50;;;;;;;;;;5126428;27;20027;-69
2023/02/14 07:55:15;;;;;;;5.18;3.80;;;;;;;;;;5129390;27;20102;-70
2023/02/14 07:57:41;;;;;;;7.35;4.28;;;;;;;;;;5125088;27;20015;-70
2023/02/14 08:00:08;;;;;;;5.15;3.80;;;;;;;;;;5127937;27;20037;-70
2023/02/14 08:02:34;;;;;;;6.05;3.92;;;;;;;;;;5124010;27;20027;-70
2023/02/14 08:05:01;;;;;;;5.65;3.97;;;;;;;;;;5126233;27;20031;-71
2023/02/14 08:07:27;;;;;;;5.93;4.40;;;;;;;;;;5132583;27;20015;-70
2023/02/14 08:09:53;;;;;;;7.05;4.28;;;;;;;;;;5124404;27;20039;-70
2023/02/14 08:17:49;;;;;;;12.85;5.07;;;;;;;;;;5128190;27;20018;-70
2023/02/14 08:20:15;;;;;;;5.00;4.45;;;;;;;;;;5129032;27;20035;-70
2023/02/14 08:22:41;;;;;;;5.10;4.13;;;;;;;;;;5128353;27;20566;-71
2023/02/14 08:25:08;;;;;;;6.45;4.47;;;;;;;;;;5133579;27;20129;-70
2023/02/14 08:27:34;;;;;;;7.80;4.00;;;;;;;;;;5129657;27;20019;-70
2023/02/14 08:30:00;;;;;;;5.60;4.47;;;;;;;;;;5129181;27;20027;-70
2023/02/14 08:32:26;;;;;;;4.95;3.72;;;;;;;;;;5122363;27;20371;-70
2023/02/14 08:34:52;;;;;;;9.13;4.50;;;;;;;;;;5129364;27;20015;-71
2023/02/14 08:37:18;;;;;;;7.20;4.20;;;;;;;;;;5133219;27;20489;-70
2023/02/14 08:39:45;;;;;;;5.15;3.95;;;;;;;;;;5131413;27;20583;-71
2023/02/14 08:42:11;;;;;;;5.93;4.30;;;;;;;;;;5133588;27;20548;-71
2023/02/14 08:44:37;;;;;;;6.05;4.47;;;;;;;;;;5131448;27;20122;-71
2023/02/14 08:47:04;;;;;;;6.55;3.97;;;;;;;;;;5133096;27;20019;-72
2023/02/14 08:49:30;;;;;;;5.50;4.72;;;;;;;;;;5128520;27;20023;-71
2023/02/14 08:51:56;;;;;;;6.45;4.85;;;;;;;;;;5131533;27;20063;-71
2023/02/14 08:54:22;;;;;;;5.90;4.05;;;;;;;;;;5134782;27;20019;-72
2023/02/14 08:56:48;;;;;;;6.63;4.38;;;;;;;;;;5133754;27;20022;-70
2023/02/14 08:59:14;;;;;;;6.63;4.05;;;;;;;;;;5133268;27;20029;-73
2023/02/14 09:01:41;;;;;;;6.45;4.47;;;;;;;;;;5136585;27;20037;-70
2023/02/14 09:04:07;;;;;;;7.40;4.40;;;;;;;;;;5140457;27;20027;-71
2023/02/14 09:06:33;;;;;;;6.70;4.60;;;;;;;;;;5131419;27;20034;-71
2023/02/14 09:08:59;;;;;;;6.07;3.88;;;;;;;;;;5140311;27;20094;-77
2023/02/14 09:11:25;;;;;;;9.93;4.18;;;;;;;;;;5130188;27;20102;-73
2023/02/14 09:13:52;;;;;;;5.90;4.60;;;;;;;;;;5115991;27;20024;-75
2023/02/14 09:16:19;;;;;;;7.60;4.07;;;;;;;;;;5129148;27;20102;-76
2023/02/14 09:18:46;;;;;;;12.50;5.00;;;;;;;;;;5132225;27;20087;-75
2023/02/14 09:21:14;;;;;;;7.53;4.68;;;;;;;;;;5131537;27;20126;-73
2023/02/14 09:23:40;;;;;;;6.20;4.35;;;;;;;;;;5139215;27;20018;-74
2023/02/14 09:26:08;;;;;;;5.75;4.07;;;;;;;;;;5136443;27;20529;-70
2023/02/14 09:28:34;;;;;;;4.50;3.95;;;;;;;;;;5129296;27;20019;-75
2023/02/14 09:31:07;;;;;;;5.97;4.45;;;;;;;;;;5136692;27;20050;-72
2023/02/14 09:33:34;;;;;;;7.85;4.50;;;;;;;;;;5139198;27;20063;-74
2023/02/14 09:36:18;;;;;;;6.38;4.40;;;;;;;;;;5142576;27;20113;-72
2023/02/14 09:38:44;;;;;;;6.25;4.15;;;;;;;;;;5133557;27;20038;-72
2023/02/14 09:41:29;;;;;;;5.80;4.50;;;;;;;;;;5126272;27;20421;-73
2023/02/14 09:44:00;;;;;;;7.22;4.72;;;;;;;;;;5137456;27;20501;-75
2023/02/14 09:46:28;;;;;;;7.00;4.75;;;;;;;;;;5134940;27;20019;-77
2023/02/14 09:48:55;;;;;;;5.43;3.78;;;;;;;;;;5137416;27;20031;-69
2023/02/14 09:51:26;;;;;;;5.47;4.53;;;;;;;;;;5136903;27;20398;-76
2023/02/14 09:53:52;;;;;;;7.30;4.47;;;;;;;;;;5136126;27;20106;-77
2023/02/14 09:56:37;;;;;;;5.90;4.70;;;;;;;;;;5136518;27;20099;-70
2023/02/14 09:59:07;;;;;;;5.70;4.43;;;;;;;;;;5132987;27;20402;-76
2023/02/14 10:01:51;;;;;;;6.90;4.47;;;;;;;;;;5128978;27;20038;-77
2023/02/14 10:04:26;;;;;;;6.35;4.18;;;;;;;;;;5141411;27;20035;-78
2023/02/14 10:07:13;;;;;;;4.65;3.85;;;;;;;;;;5137059;27;20382;-76
2023/02/14 10:09:45;;;;;;;5.07;4.13;;;;;;;;;;5131095;27;20451;-71
2023/02/14 10:12:16;;;;;;;5.70;4.60;;;;;;;;;;5114219;27;20626;-78
2023/02/14 10:14:43;;;;;;;5.85;4.70;;;;;;;;;;5126978;27;20050;-76
2023/02/14 10:17:28;;;;;;;5.55;4.15;;;;;;;;;;5131172;27;20048;-73
2023/02/14 10:19:57;;;;;;;5.18;4.20;;;;;;;;;;5129101;27;20519;-71
2023/02/14 10:22:26;;;;;;;5.40;4.50;;;;;;;;;;5130412;27;20080;-76
2023/02/14 10:24:56;;;;;;;7.40;4.25;;;;;;;;;;5131404;27;20027;-71
2023/02/14 10:27:25;;;;;;;14.15;5.30;;;;;;;;;;5134204;27;20023;-72
2023/02/14 10:29:51;;;;;;;8.05;4.13;;;;;;;;;;5136002;27;20435;-76
2023/02/14 10:32:20;;;;;;;4.53;4.10;;;;;;;;;;5127339;27;20129;-77
2023/02/14 10:34:47;;;;;;;6.25;4.35;;;;;;;;;;5131146;27;20030;-75
2023/02/14 10:37:32;;;;;;;5.10;4.47;;;;;;;;;;5133860;27;20026;-77
2023/02/14 10:40:01;;;;;;;6.38;4.10;;;;;;;;;;5136257;27;20041;-73
2023/02/14 10:42:48;;;;;;;5.63;4.53;;;;;;;;;;5132438;27;20063;-73
2023/02/14 10:45:20;;;;;;;5.63;4.35;;;;;;;;;;5131523;27;20027;-76
2023/02/14 10:47:50;;;;;;;8.65;5.45;;;;;;;;;;5129219;27;20023;-75
2023/02/14 10:50:39;;;;;;;8.00;4.70;;;;;;;;;;5130404;27;20135;-75
2023/02/14 10:53:19;;;;;;;7.32;4.72;;;;;;;;;;5134110;27;20015;-72
2023/02/14 10:55:55;;;;;;;6.18;4.47;;;;;;;;;;5128836;27;20023;-76
2023/02/14 10:58:22;;;;;;;5.43;4.63;;;;;;;;;;5130954;27;20549;-76
2023/02/14 11:00:51;;;;;;;6.80;4.68;;;;;;;;;;5134016;27;20038;-76
2023/02/14 11:03:18;;;;;;;8.63;4.93;;;;;;;;;;5130599;27;20027;-75
2023/02/14 11:05:46;;;;;;;6.03;4.50;;;;;;;;;;5131948;27;20467;-76
2023/02/14 11:08:12;;;;;;;6.35;4.55;;;;;;;;;;5143583;27;20101;-77
2023/02/14 11:10:39;;;;;;;7.03;5.25;;;;;;;;;;5142791;27;20049;-78
2023/02/14 11:13:25;;;;;;;5.90;4.63;;;;;;;;;;5129246;27;20030;-77
2023/02/14 11:15:52;;;;;;;5.75;4.55;;;;;;;;;;5131467;27;20110;-77
2023/02/14 11:18:23;;;;;;;6.05;4.30;;;;;;;;;;5123568;27;20023;-76
2023/02/14 11:21:07;;;;;;;6.07;4.85;;;;;;;;;;5129665;27;20368;-79
2023/02/14 11:23:36;;;;;;;4.95;4.40;;;;;;;;;;5138224;27;20106;-78
2023/02/14 11:26:05;;;;;;;6.38;4.40;;;;;;;;;;5129243;27;20027;-75
2023/02/14 11:28:31;;;;;;;7.63;4.78;;;;;;;;;;5139869;27;20019;-76
2023/02/14 11:30:57;;;;;;;6.75;5.20;;;;;;;;;;5134011;27;20049;-69
2023/02/14 11:33:29;;;;;;;6.97;4.88;;;;;;;;;;5133339;27;20127;-77
2023/02/14 11:35:56;;;;;;;6.13;4.55;;;;;;;;;;5128564;27;20487;-75
2023/02/14 11:38:34;;;;;;;6.70;5.55;;;;;;;;;;5130527;27;20038;-80
2023/02/14 11:41:01;;;;;;;12.02;4.75;;;;;;;;;;5117585;27;20049;-80
2023/02/14 11:43:32;;;;;;;5.57;4.78;;;;;;;;;;5128132;27;20019;-79
2023/02/14 11:46:25;;;;;;;5.85;4.93;;;;;;;;;;5131052;27;20038;-77
2023/02/14 11:48:55;;;;;;;7.22;5.22;;;;;;;;;;5129680;27;20046;-75
2023/02/14 11:51:26;;;;;;;6.78;4.95;;;;;;;;;;5138238;27;20498;-75
2023/02/14 11:53:59;;;;;;;5.82;5.07;;;;;;;;;;5133755;27;20088;-75
2023/02/14 11:56:42;;;;;;;7.57;5.10;;;;;;;;;;5138117;27;20027;-74
2023/02/14 11:59:12;;;;;;;5.95;5.20;;;;;;;;;;5131583;27;20031;-71
2023/02/14 12:01:38;;;;;;;6.10;5.07;;;;;;;;;;5135061;27;20907;-74
2023/02/14 12:04:13;;;;;;;7.25;5.10;;;;;;;;;;5135386;27;20023;-74
2023/02/14 12:06:39;;;;;;;6.55;5.30;;;;;;;;;;5127619;27;20067;-72
2023/02/14 12:09:11;;;;;;;6.82;5.65;;;;;;;;;;5138430;27;20090;-78
2023/02/14 12:11:37;;;;;;;;;;;;;;;;;;5136880;27;20026;-76
2023/02/14 12:14:04;;;;;;;8.25;6.00;;;;;;;;;;5134681;27;19942;-79
2023/02/14 12:16:46;;;;;;;6.88;5.70;;;;;;;;;;5133588;27;20026;-79
2023/02/14 12:19:20;;;;;;;6.30;5.70;;;;;;;;;;5139236;27;20022;-76
2023/02/14 12:22:03;;;;;;;7.47;5.32;;;;;;;;;;5133513;27;20039;-70
2023/02/14 12:24:35;;;;;;;6.55;5.75;;;;;;;;;;5130805;27;20029;-79
2023/02/14 12:27:16;;;;;;;7.50;5.85;;;;;;;;;;5133710;27;20034;-77
2023/02/14 12:29:45;;;;;;;10.03;5.53;;;;;;;;;;5134125;27;20027;-70
2023/02/14 12:32:17;;;;;;;9.10;5.90;;;;;;;;;;5131426;27;20024;-73
2023/02/14 12:34:44;;;;;;;7.32;5.68;;;;;;;;;;5139289;27;20599;-71
2023/02/14 12:37:13;;;;;;;7.13;5.65;;;;;;;;;;5140411;27;20075;-74
2023/02/14 12:39:51;;;;;;;6.68;5.40;;;;;;;;;;5135427;27;20098;-78
2023/02/14 12:42:28;;;;;;;8.05;5.43;;;;;;;;;;5137486;27;20027;-79
2023/02/14 12:45:13;;;;;;;7.72;5.43;;;;;;;;;;5126269;27;20436;-71
2023/02/14 12:47:48;;;;;;;10.45;6.13;;;;;;;;;;5121952;27;20669;-72
2023/02/14 12:50:18;;;;;;;6.45;5.20;;;;;;;;;;5137396;27;20109;-73
2023/02/14 12:52:54;;;;;;;9.35;6.80;;;;;;;;;;5127993;27;20565;-75
2023/02/14 12:55:29;;;;;;;7.50;4.97;;;;;;;;;;5135875;27;20426;-73
2023/02/14 12:58:10;;;;;;;7.88;5.57;;;;;;;;;;5133268;27;20395;-76
2023/02/14 13:00:55;;;;;;;10.55;5.20;;;;;;;;;;5135995;27;20038;-71
2023/02/14 13:03:31;;;;;;;7.20;5.47;;;;;;;;;;5109016;27;20133;-69
2023/02/14 13:06:16;;;;;;;9.82;5.28;;;;;;;;;;5127506;27;20487;-76
2023/02/14 13:08:45;;;;;;;6.40;5.07;;;;;;;;;;5131984;27;20019;-74
2023/02/14 13:11:27;;;;;;;6.20;5.43;;;;;;;;;;5137844;27;20601;-77
2023/02/14 13:14:10;;;;;;;9.57;5.65;;;;;;;;;;5131777;27;20024;-77
2023/02/14 13:16:59;;;;;;;5.65;5.03;;;;;;;;;;5134675;27;20011;-76
2023/02/14 13:19:35;;;;;;;7.57;5.20;;;;;;;;;;5092322;27;20038;-77
2023/02/14 13:22:03;;;;;;;7.03;5.15;;;;;;;;;;5132331;27;20088;-77
2023/02/14 13:24:35;;;;;;;6.55;5.07;;;;;;;;;;5140191;27;20080;-77
2023/02/14 13:27:01;;;;;;;;;;;;;;;;;;5138611;27;20023;-75
2023/02/14 13:29:29;;;;;;;6.35;5.07;;;;;;;;;;5135342;27;20429;-76
2023/02/14 13:32:01;;;;;;;7.28;5.03;;;;;;;;;;5135008;27;20019;-77
2023/02/14 13:34:30;;;;;;;77.22;13.20;;;;;;;;;;5134916;27;20033;-77
2023/02/14 13:36:57;;;;;;;28.83;7.25;;;;;;;;;;5136095;27;20031;-78
2023/02/14 13:39:34;;;;;;;10.85;4.75;;;;;;;;;;5139430;27;20041;-75
2023/02/14 13:42:00;;;;;;;7.20;5.15;;;;;;;;;;5134378;27;20038;-73
2023/02/14 13:44:42;;;;;;;8.38;4.93;;;;;;;;;;5136361;27;20034;-73
2023/02/14 13:47:15;;;;;;;6.47;5.38;;;;;;;;;;5135045;27;20075;-76
2023/02/14 13:49:47;;;;;;;64.95;9.45;;;;;;;;;;5130984;27;20086;-72
2023/02/14 13:52:13;;;;;;;23.15;6.50;;;;;;;;;;5128060;27;20152;-72
2023/02/14 13:54:47;;;;;;;21.90;6.10;;;;;;;;;;5115753;27;20590;-75
2023/02/14 13:57:32;;;;;;;43.03;9.52;;;;;;;;;;5113964;27;20215;-76
2023/02/14 14:00:20;;;;;;;78.18;12.35;;;;;;;;;;5131868;27;20050;-76
2023/02/14 14:02:47;;;;;;;19.30;6.68;;;;;;;;;;5132197;27;20039;-75
2023/02/14 14:05:31;;;;;;;40.45;8.57;;;;;;;;;;5129927;27;20072;-70
2023/02/14 14:08:16;;;;;;;27.25;7.15;;;;;;;;;;5133029;27;20038;-77
2023/02/14 14:10:44;;;;;;;19.77;5.10;;;;;;;;;;5134545;27;20501;-76
2023/02/14 14:13:10;;;;;;;5.93;4.85;;;;;;;;;;5128974;27;20015;-76
2023/02/14 14:15:36;;;;;;;4.85;4.30;;;;;;;;;;5130056;27;20023;-75
2023/02/14 14:18:14;;;;;;;25.77;6.80;;;;;;;;;;5133269;27;20022;-75
2023/02/14 14:20:43;;;;;;;10.98;5.10;;;;;;;;;;5138636;27;20061;-75
2023/02/14 14:23:28;;;;;;;23.17;7.18;;;;;;;;;;5131310;27;20098;-76
2023/02/14 14:25:54;;;;;;;18.55;6.35;;;;;;;;;;5144046;27;20057;-79
2023/02/14 14:28:22;;;;;;;15.48;6.05;;;;;;;;;;5141571;27;20086;-75
2023/02/14 14:30:49;;;;;;;56.47;10.18;;;;;;;;;;5142084;27;20022;-75
2023/02/14 14:33:16;;;;;;;33.33;6.97;;;;;;;;;;5130210;27;20141;-74
2023/02/14 14:35:56;;;;;;;11.93;5.63;;;;;;;;;;5135584;27;20030;-75
2023/02/14 14:38:23;;;;;;;11.65;5.10;;;;;;;;;;5131399;27;20038;-75
2023/02/14 14:40:49;;;;;;;12.20;5.38;;;;;;;;;;5132236;27;20545;-75
2023/02/14 14:43:31;;;;;;;12.68;5.95;;;;;;;;;;5143443;27;20019;-75
2023/02/14 14:45:58;;;;;;;25.63;5.97;;;;;;;;;;5140167;27;20031;-73
2023/02/14 14:48:38;;;;;;;13.85;5.78;;;;;;;;;;5142693;27;20042;-74
2023/02/14 14:51:05;;;;;;;8.73;4.93;;;;;;;;;;5134006;27;20067;-74
2023/02/14 14:53:38;;;;;;;6.95;4.97;;;;;;;;;;5139159;27;20466;-74
2023/02/14 14:56:04;;;;;;;5.95;4.50;;;;;;;;;;5133450;27;20081;-68
2023/02/14 14:58:34;;;;;;;7.35;5.13;;;;;;;;;;5140840;27;20060;-75
2023/02/14 15:01:00;;;;;;;7.28;4.88;;;;;;;;;;5135699;27;20379;-76
2023/02/14 15:03:28;;;;;;;6.50;4.47;;;;;;;;;;5138158;27;20026;-75
2023/02/14 15:06:05;;;;;;;5.55;4.90;;;;;;;;;;5131169;27;20056;-71
2023/02/14 15:08:31;;;;;;;11.68;5.35;;;;;;;;;;5130273;27;20026;-72
2023/02/14 15:11:00;;;;;;;7.53;4.80;;;;;;;;;;5134670;27;20011;-70
2023/02/14 15:13:56;;;;;;;24.90;10.88;;;;;;;;;;5127458;27;20035;-73
2023/02/14 15:16:32;;;;;;;13.48;6.45;;;;;;;;;;5137552;27;20057;-74